Time;durP1;ratioP1;P1;durP2;ratioP2;P2;SDS_P1;SDS_P2;PMS_P1;PMS_P2;Temp;Humidity;BMP_temperature;BMP_pressure;BME280_temperature;BME280_humidity;BME280_pressure;Samples;Min_cycle;Max_cycle;Signal;HPM_P1;HPM_P2
2021/10/27 00:02:24;;;;;;;21.00;10.27;;;;;;;17.18;55.95;100898.75;4993951;28;20133;-63
2021/10/27 00:04:51;;;;;;;24.27;11.30;;;;;;;17.18;55.80;100895.94;4993307;28;20407;-63
2021/10/27 00:07:18;;;;;;;19.87;10.03;;;;;;;17.11;56.13;100880.59;4991390;28;20562;-62
2021/10/27 00:09:45;;;;;;;24.73;10.57;;;;;;;17.14;56.01;100880.81;4990606;28;20140;-62
2021/10/27 00:12:15;;;;;;;19.77;10.20;;;;;;;17.13;55.70;100887.59;4987698;28;20145;-71
2021/10/27 00:14:42;;;;;;;19.15;9.30;;;;;;;17.16;55.57;100889.81;4982107;28;20137;-70
2021/10/27 00:17:09;;;;;;;18.43;9.07;;;;;;;17.12;55.34;100866.16;4992336;28;20053;-71
2021/10/27 00:19:36;;;;;;;18.38;10.35;;;;;;;17.32;55.05;100886.63;4992776;28;20456;-71
2021/10/27 00:22:03;;;;;;;24.50;10.45;;;;;;;17.45;55.00;100895.03;4990869;28;20177;-69
2021/10/27 00:24:30;;;;;;;18.02;9.30;;;;;;;17.48;54.47;100882.28;4986600;28;20141;-65
2021/10/27 00:26:57;;;;;;;21.67;11.57;;;;;;;17.58;54.76;100889.69;4989930;28;20137;-65
2021/10/27 00:29:23;;;;;;;24.23;12.90;;;;;;;17.50;54.90;100883.63;4994144;28;20125;-64
2021/10/27 00:31:50;;;;;;;22.88;10.40;;;;;;;17.44;54.55;100881.25;4992332;28;20138;-68
2021/10/27 00:34:17;;;;;;;25.67;12.88;;;;;;;17.26;55.18;100855.69;4988290;28;20125;-65
2021/10/27 00:36:44;;;;;;;25.70;12.18;;;;;;;17.41;54.82;100879.91;4993897;28;20154;-65
2021/10/27 00:39:11;;;;;;;22.25;10.43;;;;;;;17.33;54.79;100868.50;4989988;28;20078;-63
2021/10/27 00:41:42;;;;;;;15.13;8.98;;;;;;;17.12;54.75;100845.56;4987911;28;20042;-63
2021/10/27 00:44:24;;;;;;;19.38;10.23;;;;;;;17.05;55.46;100860.94;4991069;28;20050;-63
2021/10/27 00:47:07;;;;;;;20.10;10.47;;;;;;;16.67;55.51;100829.34;4978619;28;20411;-63
2021/10/27 00:49:36;;;;;;;20.53;9.73;;;;;;;16.90;55.75;100868.94;4994342;28;20129;-63
2021/10/27 00:52:10;;;;;;;23.63;11.35;;;;;;;16.79;56.03;100857.88;4992489;28;20490;-63
2021/10/27 00:54:39;;;;;;;16.20;9.30;;;;;;;16.68;56.63;100864.81;4991565;28;20129;-67
2021/10/27 00:57:06;;;;;;;21.52;11.32;;;;;;;16.54;57.16;100861.19;4987347;28;20506;-66
2021/10/27 00:59:41;;;;;;;21.10;11.30;;;;;;;16.42;57.08;100847.63;4992757;28;20082;-68
2021/10/27 01:02:10;;;;;;;22.73;12.30;;;;;;;16.46;57.39;100859.94;4991880;28;20096;-67
2021/10/27 01:04:37;;;;;;;23.50;12.03;;;;;;;16.26;57.36;100847.06;4986229;28;20453;-65
2021/10/27 01:07:04;;;;;;;26.50;11.57;;;;;;;16.37;57.36;100878.72;4987540;28;20253;-65
2021/10/27 01:09:33;;;;;;;28.00;13.00;;;;;;;16.30;57.52;100867.84;4992693;28;20081;-65
2021/10/27 01:12:00;;;;;;;26.03;12.37;;;;;;;16.29;57.54;100869.00;4992787;28;20078;-65
2021/10/27 01:14:38;;;;;;;25.13;11.57;;;;;;;16.30;57.17;100865.03;4991861;28;20050;-65
2021/10/27 01:17:06;;;;;;;19.10;10.57;;;;;;;16.30;57.13;100862.22;4981322;28;20128;-66
2021/10/27 01:19:55;;;;;;;24.77;11.57;;;;;;;16.17;57.55;100863.06;4990685;28;20078;-66
2021/10/27 01:22:42;;;;;;;24.17;10.83;;;;;;;16.09;57.55;100850.50;4990511;28;20126;-67
2021/10/27 01:25:11;;;;;;;17.97;10.63;;;;;;;16.03;57.88;100862.16;4983854;28;20147;-68
2021/10/27 01:27:45;;;;;;;18.93;10.30;;;;;;;15.73;57.72;100822.16;4987956;28;20077;-68
2021/10/27 01:30:23;;;;;;;23.03;9.50;;;;;;;15.89;57.96;100856.50;4992955;28;20676;-66
2021/10/27 01:32:51;;;;;;;18.60;10.53;;;;;;;15.91;57.73;100854.22;4984764;28;20104;-67
2021/10/27 01:35:19;;;;;;;18.63;9.30;;;;;;;15.90;57.67;100857.34;4984439;28;20124;-67
2021/10/27 01:37:46;;;;;;;19.40;9.77;;;;;;;15.85;57.99;100859.09;4990599;28;20510;-65
2021/10/27 01:40:18;;;;;;;23.70;8.50;;;;;;;15.79;58.03;100859.50;4993079;28;20047;-65
2021/10/27 01:42:46;;;;;;;19.47;10.07;;;;;;;15.73;58.06;100864.41;4992513;28;20081;-65
2021/10/27 01:45:14;;;;;;;20.83;8.93;;;;;;;15.60;58.18;100848.25;4992226;28;20046;-65
2021/10/27 01:47:43;;;;;;;17.27;7.90;;;;;;;15.63;58.08;100853.28;4982247;28;20077;-64
2021/10/27 01:50:11;;;;;;;19.90;7.93;;;;;;;15.49;58.39;100856.03;4991553;28;20069;-65
2021/10/27 01:52:38;;;;;;;21.00;8.80;;;;;;;15.30;58.59;100843.97;4989126;28;20050;-66
2021/10/27 01:55:06;;;;;;;18.33;8.87;;;;;;;15.41;58.60;100854.75;4988594;28;20097;-67
2021/10/27 01:57:33;;;;;;;14.53;8.43;;;;;;;15.35;58.79;100855.13;4987177;28;20125;-65
2021/10/27 01:59:59;;;;;;;16.53;7.33;;;;;;;15.11;58.73;100822.31;4989660;28;20039;-64
2021/10/27 02:02:26;;;;;;;17.17;8.20;;;;;;;15.34;58.46;100857.09;4988233;28;20055;-65
2021/10/27 02:04:53;;;;;;;20.80;7.50;;;;;;;15.35;58.49;100853.16;4986188;28;20042;-64
2021/10/27 02:07:20;;;;;;;15.17;7.63;;;;;;;15.28;58.51;100852.72;4987361;28;20468;-63
2021/10/27 02:09:47;;;;;;;17.60;7.10;;;;;;;15.27;58.60;100848.22;4986864;28;20047;-65
2021/10/27 02:12:15;;;;;;;12.57;6.67;;;;;;;15.12;58.78;100838.03;4989371;28;20141;-66
2021/10/27 02:14:42;;;;;;;15.37;6.60;;;;;;;15.17;58.63;100845.56;4988231;28;20410;-65
2021/10/27 02:17:09;;;;;;;14.07;6.77;;;;;;;15.15;58.84;100856.28;4990123;28;20093;-65
2021/10/27 02:19:35;;;;;;;19.87;8.47;;;;;;;15.01;59.27;100838.47;4986029;28;20629;-65
2021/10/27 02:22:03;;;;;;;12.77;7.60;;;;;;;15.04;59.22;100844.34;4982072;28;20457;-65
2021/10/27 02:24:30;;;;;;;15.17;7.23;;;;;;;14.82;58.93;100805.56;4989294;28;20082;-64
2021/10/27 02:26:57;;;;;;;12.60;8.13;;;;;;;15.08;58.80;100841.78;4989709;28;20129;-66
2021/10/27 02:29:24;;;;;;;17.73;8.27;;;;;;;15.07;58.73;100840.91;4989903;28;20077;-66
2021/10/27 02:31:51;;;;;;;14.70;6.67;;;;;;;15.12;58.83;100840.84;4993048;28;20062;-66
2021/10/27 02:34:18;;;;;;;14.83;6.80;;;;;;;15.18;58.33;100841.63;4986633;28;20046;-65
2021/10/27 02:36:45;;;;;;;15.67;7.97;;;;;;;15.30;57.98;100833.53;4980292;28;20078;-65
2021/10/27 02:39:11;;;;;;;13.10;5.43;;;;;;;15.32;58.10;100833.25;4987964;28;20042;-65
2021/10/27 02:41:38;;;;;;;13.93;6.93;;;;;;;15.34;57.87;100826.16;4989044;28;20046;-64
2021/10/27 02:44:05;;;;;;;12.87;7.07;;;;;;;15.33;57.69;100832.94;4991909;28;20446;-65
2021/10/27 02:46:32;;;;;;;12.43;7.17;;;;;;;15.29;57.90;100831.88;4989264;28;20070;-63
2021/10/27 02:48:59;;;;;;;15.57;6.67;;;;;;;15.24;57.59;100823.50;4985163;28;20077;-62
2021/10/27 02:51:25;;;;;;;12.77;6.53;;;;;;;15.30;57.66;100833.53;4971753;28;20046;-61
2021/10/27 02:53:52;;;;;;;12.63;5.50;;;;;;;15.12;58.14;100823.16;4989568;28;20133;-62
2021/10/27 02:56:19;;;;;;;11.73;5.80;;;;;;;15.00;58.45;100825.56;4984695;28;20100;-62
2021/10/27 02:58:46;;;;;;;14.10;7.97;;;;;;;14.95;58.71;100831.28;4991285;28;20479;-63
2021/10/27 03:01:13;;;;;;;16.47;6.57;;;;;;;14.92;58.78;100822.28;4985171;28;20046;-64
2021/10/27 03:03:40;;;;;;;15.53;6.17;;;;;;;14.80;58.84;100815.44;4990810;28;20054;-62
2021/10/27 03:06:07;;;;;;;11.67;6.03;;;;;;;14.73;59.08;100818.63;4986515;28;20086;-63
2021/10/27 03:08:34;;;;;;;17.13;6.90;;;;;;;14.72;59.31;100818.94;4984208;28;20081;-62
2021/10/27 03:11:00;;;;;;;11.40;4.83;;;;;;;14.70;59.23;100819.25;4989644;28;20141;-62
2021/10/27 03:13:27;;;;;;;13.57;4.83;;;;;;;14.68;59.25;100815.91;4989668;28;20157;-62
2021/10/27 03:15:54;;;;;;;12.57;5.77;;;;;;;14.60;59.69;100813.78;4989142;28;20463;-64
2021/10/27 03:18:25;;;;;;;;;;;;;;;14.42;60.12;100813.38;4990535;28;20072;-66
2021/10/27 03:20:52;;;;;;;6.53;3.07;;;;;;;14.38;60.12;100817.09;4988744;28;20395;-64
2021/10/27 03:23:19;;;;;;;11.27;3.90;;;;;;;14.37;60.13;100821.88;5005007;28;20150;-68
2021/10/27 03:25:46;;;;;;;12.17;5.73;;;;;;;14.38;60.15;100817.91;4991689;28;20058;-68
2021/10/27 03:28:12;;;;;;;14.53;5.53;;;;;;;14.35;60.38;100824.13;4994220;28;20129;-62
2021/10/27 03:30:39;;;;;;;10.73;5.47;;;;;;;14.32;60.02;100807.03;4985489;28;20606;-63
2021/10/27 03:33:06;;;;;;;16.33;6.37;;;;;;;14.44;59.81;100816.72;4984126;28;20141;-64
2021/10/27 03:35:33;;;;;;;14.33;4.43;;;;;;;14.52;59.72;100822.84;4993438;28;20133;-65
2021/10/27 03:38:00;;;;;;;9.73;5.13;;;;;;;14.48;59.49;100810.50;4989799;28;20046;-64
2021/10/27 03:40:27;;;;;;;9.63;5.07;;;;;;;14.58;59.37;100825.28;4995227;28;20125;-65
2021/10/27 03:42:54;;;;;;;14.50;5.53;;;;;;;14.60;59.37;100827.81;4993200;28;20046;-65
2021/10/27 03:45:21;;;;;;;10.03;5.53;;;;;;;14.51;59.70;100809.94;4990481;28;20116;-62
2021/10/27 03:47:48;;;;;;;7.87;5.13;;;;;;;14.52;59.50;100823.69;4991272;28;20472;-64
2021/10/27 03:50:14;;;;;;;12.33;6.23;;;;;;;14.49;59.62;100817.78;4986546;28;20088;-64
2021/10/27 03:52:42;;;;;;;10.20;6.03;;;;;;;14.36;59.57;100797.75;4991059;28;20129;-65
2021/10/27 03:55:10;;;;;;;11.77;6.10;;;;;;;14.00;60.17;100766.41;4990937;28;20073;-66
2021/10/27 03:57:37;;;;;;;18.53;6.13;;;;;;;14.28;60.36;100817.22;4981199;28;20157;-67
2021/10/27 04:00:06;;;;;;;6.97;4.07;;;;;;;14.17;60.45;100808.06;4982110;28;20051;-68
2021/10/27 04:02:38;;;;;;;7.43;4.77;;;;;;;14.01;60.73;100787.75;4987928;28;20525;-70
2021/10/27 04:05:06;;;;;;;11.67;4.13;;;;;;;13.99;61.10;100804.91;4982997;28;20546;-68
2021/10/27 04:07:37;;;;;;;6.73;3.90;;;;;;;13.96;61.25;100804.66;4982057;28;20046;-67
2021/10/27 04:10:06;;;;;;;10.17;4.63;;;;;;;13.96;61.08;100799.88;4980715;28;20051;-64
2021/10/27 04:12:34;;;;;;;7.57;3.40;;;;;;;13.96;61.00;100799.88;4990128;28;20046;-65
2021/10/27 04:15:03;;;;;;;5.47;2.70;;;;;;;14.08;60.80;100809.84;4992026;28;20070;-74
2021/10/27 04:17:30;;;;;;;7.20;3.37;;;;;;;14.14;60.72;100814.28;4992528;28;20487;-74
2021/10/27 04:19:57;;;;;;;7.33;3.43;;;;;;;14.19;60.59;100803.84;4992159;28;20129;-72
2021/10/27 04:22:24;;;;;;;9.13;4.90;;;;;;;14.26;60.16;100809.09;4992937;28;20125;-72
2021/10/27 04:24:50;;;;;;;8.90;4.03;;;;;;;14.30;59.97;100812.16;4991450;28;20451;-73
2021/10/27 04:27:17;;;;;;;7.97;3.77;;;;;;;14.27;60.04;100810.75;4989657;28;20046;-74
2021/10/27 04:29:44;;;;;;;6.73;2.47;;;;;;;14.17;60.36;100808.91;4994302;28;20080;-72
2021/10/27 04:32:11;;;;;;;5.30;3.17;;;;;;;14.07;60.43;100802.56;5002629;28;20069;-73
2021/10/27 04:34:38;;;;;;;5.40;2.60;;;;;;;14.04;60.63;100811.59;5003685;28;20081;-73
2021/10/27 04:37:06;;;;;;;9.57;4.93;;;;;;;14.07;60.54;100816.63;4996880;28;20046;-73
2021/10/27 04:39:33;;;;;;;8.30;3.97;;;;;;;14.09;60.48;100814.34;4991203;28;20464;-72
2021/10/27 04:42:00;;;;;;;7.00;3.23;;;;;;;14.12;60.29;100819.34;4991992;28;20173;-72
2021/10/27 04:44:27;;;;;;;3.63;2.77;;;;;;;14.18;60.28;100823.78;4989596;28;20137;-73
2021/10/27 04:46:53;;;;;;;10.10;3.23;;;;;;;14.21;59.97;100823.19;4996596;28;20074;-72
2021/10/27 04:49:21;;;;;;;6.77;3.47;;;;;;;14.23;60.01;100821.75;5009285;28;20050;-71
2021/10/27 04:51:48;;;;;;;6.97;3.20;;;;;;;14.23;59.74;100826.53;5000660;28;20423;-64
2021/10/27 04:54:15;;;;;;;5.37;3.20;;;;;;;14.28;59.63;100820.84;4986808;28;20084;-67
2021/10/27 04:56:43;;;;;;;8.23;3.03;;;;;;;14.20;59.70;100822.34;4989070;28;20533;-69
2021/10/27 04:59:10;;;;;;;6.00;2.77;;;;;;;14.11;59.58;100803.66;4993788;28;20141;-68
2021/10/27 05:01:37;;;;;;;6.27;3.00;;;;;;;14.30;59.31;100820.56;4990070;28;20125;-63
2021/10/27 05:04:04;;;;;;;6.03;2.43;;;;;;;14.31;59.32;100822.22;4991159;28;20048;-65
2021/10/27 05:06:31;;;;;;;5.47;2.37;;;;;;;14.27;59.20;100824.81;4990272;28;20050;-62
2021/10/27 05:08:58;;;;;;;6.57;3.37;;;;;;;14.31;59.13;100819.44;4986862;28;20133;-63
2021/10/27 05:11:25;;;;;;;8.60;3.40;;;;;;;14.29;59.03;100807.63;4990324;28;20129;-66
2021/10/27 05:13:52;;;;;;;5.33;3.67;;;;;;;14.33;58.95;100814.34;4987716;28;20491;-66
2021/10/27 05:16:19;;;;;;;4.07;2.40;;;;;;;14.33;58.86;100815.19;4986039;28;20076;-66
2021/10/27 05:18:46;;;;;;;3.93;2.50;;;;;;;14.33;58.81;100820.81;4992302;28;20125;-66
2021/10/27 05:21:13;;;;;;;5.97;3.73;;;;;;;14.28;58.48;100806.81;4988554;28;20566;-65
2021/10/27 05:23:43;;;;;;;;;;;;;;;14.22;58.82;100810.81;4989022;28;20080;-64
2021/10/27 05:26:10;;;;;;;3.93;2.47;;;;;;;14.29;58.26;100796.41;4992262;28;20341;-68
2021/10/27 05:28:37;;;;;;;5.60;2.93;;;;;;;14.44;58.28;100818.69;4990756;28;20158;-64
2021/10/27 05:31:04;;;;;;;7.47;2.33;;;;;;;14.40;58.24;100815.66;4985897;28;20057;-65
2021/10/27 05:33:31;;;;;;;8.53;3.17;;;;;;;14.20;58.11;100799.06;4983243;28;20497;-65
2021/10/27 05:35:58;;;;;;;4.43;2.77;;;;;;;14.05;58.47;100773.94;4987237;28;20550;-65
2021/10/27 05:38:25;;;;;;;7.33;3.80;;;;;;;14.19;58.79;100819.84;4983915;28;20137;-59
2021/10/27 05:40:52;;;;;;;9.13;3.13;;;;;;;14.04;58.84;100808.78;4989287;28;20054;-63
2021/10/27 05:43:19;;;;;;;8.60;3.40;;;;;;;13.64;59.36;100768.75;4985476;28;20138;-64
2021/10/27 05:45:47;;;;;;;4.70;1.57;;;;;;;13.86;59.77;100816.81;4986813;28;20066;-61
2021/10/27 05:48:16;;;;;;;5.63;2.40;;;;;;;13.84;59.88;100816.28;4984929;28;20047;-63
2021/10/27 05:50:46;;;;;;;4.07;2.53;;;;;;;13.84;59.63;100816.28;4984333;28;20068;-65
2021/10/27 05:55:58;;;;;;;7.17;3.20;;;;;;;13.78;59.80;100792.22;4984348;28;21083;-64
2021/10/27 05:58:25;;;;;;;5.27;2.83;;;;;;;13.72;59.46;100787.78;4983493;28;20145;-63
2021/10/27 06:00:52;;;;;;;8.37;2.87;;;;;;;13.83;59.88;100810.97;4987224;28;20074;-63
2021/10/27 06:03:19;;;;;;;3.17;2.13;;;;;;;13.85;59.73;100815.16;4988102;28;20046;-63
2021/10/27 06:05:45;;;;;;;5.03;1.40;;;;;;;13.67;60.04;100807.47;4983394;28;20137;-63
2021/10/27 06:08:14;;;;;;;5.53;2.30;;;;;;;13.51;60.17;100793.59;4989164;28;20129;-63
2021/10/27 06:10:42;;;;;;;3.97;2.57;;;;;;;13.63;60.23;100806.38;4989034;28;20086;-63
2021/10/27 06:13:12;;;;;;;3.83;2.03;;;;;;;13.59;60.37;100808.09;4990758;28;20104;-63
2021/10/27 06:15:39;;;;;;;;;;;;;;;13.50;60.68;100813.50;4987310;28;20199;-65
2021/10/27 06:18:06;;;;;;;7.23;3.47;;;;;;;13.57;60.53;100813.16;4984303;28;19922;-63
2021/10/27 06:20:33;;;;;;;6.43;3.20;;;;;;;13.57;60.56;100819.63;4984595;28;20082;-62
2021/10/27 06:23:00;;;;;;;3.73;1.83;;;;;;;13.52;60.70;100816.88;4985006;28;20082;-62
2021/10/27 06:25:28;;;;;;;2.73;1.90;;;;;;;13.41;60.72;100798.47;4989147;28;20137;-64
2021/10/27 06:28:09;;;;;;;6.07;3.13;;;;;;;13.43;60.93;100813.84;4988071;28;20125;-64
2021/10/27 06:30:50;;;;;;;1.63;1.13;;;;;;;13.43;60.93;100816.66;4983090;28;20129;-62
2021/10/27 06:35:55;;;;;;;4.03;2.53;;;;;;;13.52;60.57;100812.09;4987052;28;20130;-62
2021/10/27 06:46:38;;;;;;;3.90;2.07;;;;;;;13.56;60.51;100814.31;4982100;28;20192;-64
2021/10/27 06:49:06;;;;;;;2.83;1.90;;;;;;;13.51;60.62;100816.03;4989669;28;20050;-64
2021/10/27 06:51:34;;;;;;;3.00;1.10;;;;;;;13.49;60.58;100818.28;4978503;28;20086;-62
2021/10/27 06:54:02;;;;;;;4.10;2.00;;;;;;;13.54;60.31;100806.19;4976975;28;20089;-64
2021/10/27 06:56:30;;;;;;;7.63;3.90;;;;;;;13.61;59.76;100800.25;4981858;28;20173;-63
2021/10/27 06:59:19;;;;;;;8.20;3.80;;;;;;;13.65;59.96;100806.94;4996338;28;20046;-63
2021/10/27 07:15:08;;;;;;;7.33;3.00;;;;;;;13.72;59.42;100815.84;4994056;28;20144;-64
2021/10/27 07:17:35;;;;;;;5.80;3.70;;;;;;;13.75;59.42;100806.84;4991573;28;20483;-64
2021/10/27 07:20:06;;;;;;;8.30;3.80;;;;;;;13.95;58.92;100825.44;4996314;28;20584;-63
2021/10/27 07:22:34;;;;;;;7.17;3.53;;;;;;;13.94;58.74;100813.34;4990097;28;20125;-63
2021/10/27 07:25:02;;;;;;;6.63;3.47;;;;;;;14.20;58.41;100838.38;4991546;28;20387;-63
2021/10/27 07:27:31;;;;;;;10.50;4.00;;;;;;;14.21;58.27;100826.00;4994421;28;20466;-63
2021/10/27 07:29:58;;;;;;;8.80;3.70;;;;;;;14.45;57.91;100828.81;4976629;28;20404;-64
2021/10/27 07:32:26;;;;;;;7.37;4.10;;;;;;;14.54;57.56;100834.63;4987482;28;20521;-62
2021/10/27 07:35:14;;;;;;;3.47;2.00;;;;;;;14.53;57.65;100831.00;4989101;28;20109;-63
2021/10/27 07:40:43;;;;;;;16.73;5.63;;;;;;;14.74;56.98;100837.19;4979986;28;20513;-63
2021/10/27 07:43:23;;;;;;;20.38;8.27;;;;;;;14.92;56.78;100843.97;4979469;28;20135;-63
2021/10/27 07:45:50;;;;;;;19.98;9.45;;;;;;;15.09;56.56;100849.06;4976280;28;20388;-63
2021/10/27 07:48:17;;;;;;;14.10;5.77;;;;;;;15.36;56.06;100851.19;4983670;28;20073;-63
2021/10/27 07:50:44;;;;;;;9.93;4.87;;;;;;;15.71;55.59;100869.50;4991195;28;20046;-63
2021/10/27 07:53:13;;;;;;;12.70;5.57;;;;;;;15.92;55.12;100849.44;4990440;28;20166;-63
2021/10/27 07:55:42;;;;;;;8.73;4.93;;;;;;;16.38;54.54;100868.31;4989084;28;20050;-64
2021/10/27 07:58:10;;;;;;;7.97;4.25;;;;;;;16.71;54.26;100864.19;4990659;28;20085;-63
2021/10/27 08:00:38;;;;;;;6.83;4.30;;;;;;;17.00;53.50;100871.53;4976252;28;20129;-63
2021/10/27 08:03:05;;;;;;;10.07;3.63;;;;;;;17.08;52.95;100876.41;4990115;28;20046;-63
2021/10/27 08:05:39;;;;;;;5.33;3.40;;;;;;;17.14;52.88;100854.56;4995279;28;20431;-63
2021/10/27 08:08:11;;;;;;;6.93;3.72;;;;;;;17.20;52.27;100879.53;4990806;28;20142;-63
2021/10/27 08:10:38;;;;;;;10.07;4.30;;;;;;;17.30;52.08;100867.19;4983427;28;20054;-64
2021/10/27 08:13:06;;;;;;;8.43;3.35;;;;;;;17.33;51.61;100885.44;4977026;28;20543;-63
2021/10/27 08:15:33;;;;;;;10.82;3.78;;;;;;;17.28;51.20;100883.59;4991708;28;20081;-64
2021/10/27 08:18:02;;;;;;;6.57;3.50;;;;;;;17.40;51.11;100877.38;4976784;28;20089;-64
2021/10/27 08:20:29;;;;;;;7.65;4.05;;;;;;;17.56;51.16;100883.50;4992897;28;20070;-61
2021/10/27 08:23:03;;;;;;;8.80;4.78;;;;;;;18.00;50.50;100892.00;4992252;28;20156;-62
2021/10/27 08:28:05;;;;;;;13.77;7.55;;;;;;;19.40;48.91;100857.38;4979960;28;20093;-62
2021/10/27 08:31:17;;;;;;;23.48;11.15;;;;;;;20.20;48.36;100884.50;4979291;28;20074;-66
2021/10/27 08:36:00;;;;;;;17.02;9.13;;;;;;;21.25;47.00;100899.91;4994660;28;20070;-63
2021/10/27 08:38:27;;;;;;;12.50;6.63;;;;;;;21.65;46.29;100899.47;4992611;28;20116;-63
2021/10/27 08:40:55;;;;;;;8.45;4.85;;;;;;;21.68;45.10;100905.28;4991000;28;20151;-63
2021/10/27 08:43:23;;;;;;;11.38;6.05;;;;;;;22.19;45.04;100888.94;4985184;28;20073;-63
2021/10/27 08:45:50;;;;;;;10.20;6.05;;;;;;;22.65;43.99;100897.44;4983607;28;20478;-63
2021/10/27 08:48:17;;;;;;;9.00;5.53;;;;;;;22.71;42.89;100901.72;4991485;28;20085;-64
2021/10/27 08:50:45;;;;;;;8.38;5.30;;;;;;;23.08;42.87;100893.22;4991570;28;20129;-64
2021/10/27 08:53:16;;;;;;;11.30;5.60;;;;;;;23.21;41.66;100892.00;4978187;28;20081;-65
2021/10/27 08:55:46;;;;;;;13.85;6.22;;;;;;;23.21;41.61;100883.44;4984452;28;20089;-62
2021/10/27 08:58:19;;;;;;;13.27;5.18;;;;;;;23.87;41.12;100888.78;4990113;28;20402;-62
2021/10/27 09:01:05;;;;;;;8.73;4.97;;;;;;;24.56;40.42;100894.38;4975511;28;20082;-62
2021/10/27 09:03:47;;;;;;;8.88;4.50;;;;;;;25.06;39.66;100904.22;4988913;28;20077;-63
2021/10/27 09:06:44;;;;;;;11.05;5.13;;;;;;;25.01;38.74;100896.72;4974994;28;20461;-63
2021/10/27 09:09:30;;;;;;;11.63;5.10;;;;;;;25.03;39.39;100902.09;4984800;28;20065;-63
2021/10/27 09:38:06;;;;;;;12.25;4.90;;;;;;;26.23;35.43;100886.00;4974237;28;20133;-64
2021/10/27 10:06:29;;;;;;;12.40;4.95;;;;;;;28.45;32.79;100872.16;4992750;28;20473;-64
2021/10/27 10:08:57;;;;;;;9.35;5.05;;;;;;;28.44;32.27;100867.59;4991264;28;20124;-63
2021/10/27 10:11:24;;;;;;;13.73;5.45;;;;;;;28.69;32.70;100885.09;4986528;28;20073;-63
2021/10/27 10:13:53;;;;;;;7.50;4.72;;;;;;;29.31;31.28;100887.25;4992751;28;20186;-63
2021/10/27 10:16:21;;;;;;;10.40;4.80;;;;;;;29.18;31.04;100883.03;4985159;28;20521;-62
2021/10/27 10:18:49;;;;;;;8.03;4.80;;;;;;;29.57;30.86;100876.69;4991000;28;20089;-64
2021/10/27 10:21:26;;;;;;;11.43;5.25;;;;;;;29.75;31.08;100878.47;4985517;28;20491;-63
2021/10/27 10:24:15;;;;;;;9.13;5.38;;;;;;;29.03;30.52;100882.13;4988578;28;20050;-62
2021/10/27 10:26:42;;;;;;;12.43;5.47;;;;;;;28.68;30.45;100889.16;4987425;28;20085;-62
2021/10/27 10:29:10;;;;;;;11.57;5.18;;;;;;;28.58;30.91;100872.66;4988540;28;20093;-63
2021/10/27 10:31:39;;;;;;;12.23;5.55;;;;;;;28.75;31.23;100885.53;4984380;28;20201;-63
2021/10/27 10:34:09;;;;;;;8.75;5.65;;;;;;;29.19;30.49;100899.06;4988574;28;20193;-63
2021/10/27 10:36:44;;;;;;;9.52;6.35;;;;;;;29.22;30.79;100892.53;4983526;28;20713;-63
2021/10/27 10:39:53;;;;;;;11.48;6.20;;;;;;;29.44;31.08;100877.06;4990993;28;20133;-63
2021/10/27 10:45:59;;;;;;;15.18;7.00;;;;;;;30.38;29.59;100882.00;4965979;28;20146;-64
2021/10/27 11:15:10;;;;;;;9.15;5.93;;;;;;;31.26;27.76;100878.75;4973138;28;20047;-62
2021/10/27 11:23:22;;;;;;;9.10;5.95;;;;;;;31.44;26.91;100861.41;4972831;28;20047;-62
2021/10/27 11:26:11;;;;;;;14.88;7.25;;;;;;;31.95;26.01;100878.16;4972831;28;20478;-63
2021/10/27 11:37:31;;;;;;;10.52;6.60;;;;;;;34.51;24.18;100864.53;4987761;28;20119;-62
2021/10/27 11:40:13;;;;;;;9.55;6.43;;;;;;;35.12;24.02;100857.75;4974172;28;20139;-62
2021/10/27 11:46:24;;;;;;;15.95;6.53;;;;;;;36.24;22.05;100851.28;4995392;28;20084;-62
2021/10/27 11:50:46;;;;;;;9.15;5.60;;;;;;;37.18;20.78;100859.38;4987784;28;20416;-62
2021/10/27 11:53:28;;;;;;;8.23;4.80;;;;;;;37.64;20.41;100846.47;4985061;28;20138;-62
2021/10/27 11:55:56;;;;;;;21.02;7.00;;;;;;;37.93;19.67;100842.72;4991102;28;20085;-61
2021/10/27 11:58:40;;;;;;;10.00;5.57;;;;;;;38.26;19.93;100837.50;4976331;28;20130;-62
2021/10/27 12:01:13;;;;;;;12.20;6.22;;;;;;;38.32;19.23;100835.63;4979262;28;20559;-61
2021/10/27 12:03:43;;;;;;;11.13;6.00;;;;;;;38.26;19.37;100831.69;4993177;28;20145;-61
2021/10/27 12:07:10;;;;;;;8.35;5.47;;;;;;;38.67;18.81;100827.00;4986001;28;20047;-62
2021/10/27 12:19:52;;;;;;;8.88;4.47;;;;;;;40.78;16.69;100815.25;4988647;28;20055;-62
2021/10/27 12:22:23;;;;;;;8.27;4.57;;;;;;;40.81;16.39;100808.41;4986592;28;20165;-62
2021/10/27 12:25:00;;;;;;;9.05;4.68;;;;;;;41.25;16.54;100799.38;4980607;28;20074;-62
2021/10/27 12:27:38;;;;;;;10.35;5.72;;;;;;;41.76;15.76;100796.56;4980108;28;20150;-62
2021/10/27 12:30:10;;;;;;;6.03;4.60;;;;;;;42.37;15.63;100799.50;4989462;28;20566;-62
2021/10/27 12:32:52;;;;;;;5.82;4.03;;;;;;;42.77;15.42;100796.22;4985817;28;20081;-62
2021/10/27 12:35:24;;;;;;;12.55;5.53;;;;;;;42.87;14.87;100782.25;4989433;28;20494;-62
2021/10/27 12:37:56;;;;;;;5.90;4.70;;;;;;;43.15;14.49;100803.47;4988068;28;20100;-62
2021/10/27 12:40:36;;;;;;;8.45;4.53;;;;;;;43.31;14.71;100784.53;4979875;28;20054;-63
2021/10/27 12:43:18;;;;;;;8.43;4.40;;;;;;;43.61;14.40;100781.66;4979005;28;20511;-64
2021/10/27 12:45:51;;;;;;;10.43;5.57;;;;;;;43.49;14.33;100781.47;4988301;28;20129;-62
2021/10/27 12:48:22;;;;;;;9.80;4.25;;;;;;;43.46;14.34;100776.56;4979782;28;20062;-64
2021/10/27 12:51:04;;;;;;;7.57;4.65;;;;;;;43.88;14.58;100774.66;4986993;28;20082;-63
2021/10/27 12:53:33;;;;;;;4.38;3.22;;;;;;;43.99;14.02;100766.06;4987473;28;20188;-63
2021/10/27 12:56:23;;;;;;;5.47;3.90;;;;;;;44.41;14.30;100761.91;4985072;28;20081;-63
2021/10/27 12:59:01;;;;;;;10.13;3.97;;;;;;;44.27;13.50;100751.78;4982519;28;20078;-64
2021/10/27 13:01:37;;;;;;;;;;;;;;;44.95;14.20;100755.72;4983137;28;20093;-63
2021/10/27 13:20:05;;;;;;;7.68;4.13;;;;;;;33.36;20.35;100713.81;4980933;28;20070;-63
2021/10/27 13:30:44;;;;;;;7.95;3.95;;;;;;;29.59;24.22;100695.84;4993096;28;20465;-63
2021/10/27 13:33:12;;;;;;;7.57;3.88;;;;;;;29.07;25.39;100726.88;4990630;28;20165;-64
2021/10/27 13:35:39;;;;;;;6.65;3.17;;;;;;;28.52;25.93;100717.06;4975510;28;20133;-64
2021/10/27 13:38:08;;;;;;;9.65;3.85;;;;;;;28.12;26.54;100712.22;4978740;28;20134;-64
2021/10/27 13:40:37;;;;;;;6.43;2.67;;;;;;;27.70;26.76;100716.28;4993638;28;20525;-64
2021/10/27 13:43:15;;;;;;;6.88;3.42;;;;;;;27.38;27.37;100707.31;4993367;28;20542;-64
2021/10/27 14:07:48;;;;;;;3.83;2.53;;;;;;;25.29;30.02;100685.09;4972280;28;20505;-64
2021/10/27 14:10:42;;;;;;;6.20;2.03;;;;;;;25.11;30.38;100681.06;4973766;28;20081;-64
2021/10/27 14:48:26;;;;;;;6.72;2.00;;;;;;;23.98;32.91;100660.03;4984312;28;20052;-69
2021/10/27 15:21:26;;;;;;;12.82;3.65;;;;;;;23.21;35.43;100638.41;4991613;28;20089;-69
2021/10/27 15:34:46;;;;;;;7.00;3.08;;;;;;;23.00;36.54;100637.81;4983411;28;20074;-69
2021/10/27 15:42:42;;;;;;;8.18;3.25;;;;;;;22.84;37.20;100630.03;4995707;28;20498;-69
2021/10/27 15:45:31;;;;;;;10.38;4.20;;;;;;;22.78;37.10;100630.66;4985201;28;20081;-69
2021/10/27 15:53:14;;;;;;;13.57;4.07;;;;;;;22.63;37.71;100629.38;4982967;28;20066;-70
2021/10/27 15:55:41;;;;;;;10.05;4.15;;;;;;;22.59;37.96;100631.28;4995243;28;20082;-70
2021/10/27 15:58:08;;;;;;;7.90;3.40;;;;;;;22.52;38.31;100636.78;4995339;28;20486;-70
2021/10/27 16:00:39;;;;;;;12.38;3.72;;;;;;;22.41;38.30;100634.44;4993751;28;20070;-70
2021/10/27 16:03:07;;;;;;;10.45;3.67;;;;;;;22.38;38.43;100628.63;4993861;28;20177;-69
2021/10/27 16:05:38;;;;;;;7.07;3.65;;;;;;;22.29;38.99;100611.72;4994438;28;20129;-69
2021/10/27 16:08:07;;;;;;;9.95;3.63;;;;;;;22.33;38.89;100623.19;4987859;28;20148;-69
2021/10/27 16:10:35;;;;;;;10.10;3.53;;;;;;;22.32;38.95;100627.22;4995146;28;20133;-69
2021/10/27 16:13:03;;;;;;;7.82;3.17;;;;;;;22.25;39.36;100639.19;4991970;28;20049;-69
2021/10/27 16:15:42;;;;;;;9.80;4.05;;;;;;;22.19;39.51;100635.78;4975443;28;20137;-69
2021/10/27 16:18:12;;;;;;;6.75;4.10;;;;;;;22.15;39.87;100632.00;4976582;28;20046;-71